createdAt,value
2024-05-09T00:00:35.524Z,10.23
2024-05-09T00:03:07.101Z,11.10
2024-05-09T00:05:34.080Z,11.43
2024-05-09T00:08:00.941Z,11.73
2024-05-09T00:10:35.366Z,11.55
2024-05-09T00:13:04.932Z,11.18
2024-05-09T00:15:33.110Z,10.98
2024-05-09T00:17:59.709Z,11.20
2024-05-09T00:20:35.065Z,11.48
2024-05-09T00:23:06.808Z,11.07
2024-05-09T00:25:33.618Z,11.85
2024-05-09T00:28:00.167Z,11.77
2024-05-09T00:30:33.583Z,12.13
2024-05-09T00:33:04.044Z,11.50
2024-05-09T00:35:31.386Z,11.30
2024-05-09T00:37:58.003Z,11.35
2024-05-09T00:40:35.191Z,12.23
2024-05-09T00:45:34.058Z,11.95
2024-05-09T00:48:04.837Z,11.02
2024-05-09T00:50:36.798Z,11.35
2024-05-09T00:53:06.405Z,11.80
2024-05-09T00:55:34.698Z,11.77
2024-05-09T00:58:02.122Z,11.38
2024-05-09T01:00:35.990Z,12.23
2024-05-09T01:03:06.896Z,12.23
2024-05-09T01:05:34.630Z,13.02
2024-05-09T01:08:02.262Z,11.35
2024-05-09T01:10:34.314Z,11.75
2024-05-09T01:13:03.475Z,12.38
2024-05-09T01:15:30.134Z,12.20
2024-05-09T01:17:57.798Z,12.05
2024-05-09T01:20:36.435Z,12.05
2024-05-09T01:23:09.431Z,11.75
2024-05-09T01:25:36.431Z,13.20
2024-05-09T01:28:03.043Z,12.27
2024-05-09T01:30:34.772Z,12.20
2024-05-09T01:33:04.651Z,12.32
2024-05-09T01:35:31.724Z,12.18
2024-05-09T01:37:58.357Z,12.60
2024-05-09T01:40:33.751Z,12.73
2024-05-09T01:43:04.809Z,12.70
2024-05-09T01:45:31.488Z,11.80
2024-05-09T01:47:58.677Z,12.77
2024-05-09T01:50:36.711Z,12.15
2024-05-09T01:53:07.206Z,12.95
2024-05-09T01:55:33.799Z,12.55
2024-05-09T01:58:00.385Z,12.35
2024-05-09T02:00:36.297Z,13.23
2024-05-09T02:03:10.713Z,13.48
2024-05-09T02:05:39.216Z,13.00
2024-05-09T02:08:06.983Z,13.18
2024-05-09T02:10:33.788Z,12.73
2024-05-09T02:13:00.794Z,13.60
2024-05-09T02:15:27.647Z,12.85
2024-05-09T02:17:54.413Z,13.93
2024-05-09T02:20:30.197Z,13.95
2024-05-09T02:25:30.385Z,13.20
2024-05-09T02:27:57.102Z,13.38
2024-05-09T02:30:31.008Z,13.32
2024-05-09T02:33:05.838Z,13.77
2024-05-09T02:35:32.891Z,13.43
2024-05-09T02:37:59.781Z,13.20
2024-05-09T02:40:35.427Z,13.80
2024-05-09T02:43:05.397Z,13.23
2024-05-09T02:45:32.103Z,13.23
2024-05-09T02:47:58.983Z,13.68
2024-05-09T02:50:33.813Z,13.57
2024-05-09T02:53:05.105Z,14.18
2024-05-09T02:55:31.925Z,13.63
2024-05-09T02:57:58.481Z,14.00
2024-05-09T03:00:34.269Z,14.30
2024-05-09T03:03:07.062Z,13.90
2024-05-09T03:05:34.096Z,14.05
2024-05-09T03:08:00.850Z,14.15
2024-05-09T03:10:29.187Z,14.98
2024-05-09T03:13:06.078Z,14.48
2024-05-09T03:18:00.164Z,14.07
2024-05-09T03:20:33.029Z,14.48
2024-05-09T03:23:01.953Z,14.35
2024-05-09T03:25:28.606Z,14.35
2024-05-09T03:27:55.195Z,14.32
2024-05-09T03:30:31.008Z,14.10
2024-05-09T03:33:10.564Z,14.25
2024-05-09T03:38:04.227Z,14.05
2024-05-09T03:40:31.418Z,12.10
2024-05-09T03:42:58.757Z,13.82
2024-05-09T03:45:25.423Z,14.80
2024-05-09T03:47:52.488Z,14.25
2024-05-09T03:50:26.402Z,14.88
2024-05-09T03:53:00.616Z,13.98
2024-05-09T03:55:27.779Z,14.73
2024-05-09T03:57:54.371Z,14.52
2024-05-09T04:00:30.501Z,14.25
2024-05-09T04:03:02.588Z,14.70
2024-05-09T04:05:30.741Z,14.63
2024-05-09T04:07:57.646Z,15.00
2024-05-09T04:10:31.055Z,14.02
2024-05-09T04:13:00.345Z,14.57
2024-05-09T04:15:26.941Z,14.35
2024-05-09T04:17:53.698Z,14.50
2024-05-09T04:20:29.353Z,13.85
2024-05-09T04:23:04.285Z,14.02
2024-05-09T04:25:32.003Z,14.10
2024-05-09T04:27:58.592Z,14.80
2024-05-09T04:30:34.561Z,16.17
2024-05-09T04:33:05.867Z,14.95
2024-05-09T04:35:32.835Z,14.60
2024-05-09T04:37:59.500Z,15.40
2024-05-09T04:40:33.050Z,14.63
2024-05-09T04:43:03.118Z,16.45
2024-05-09T04:45:29.955Z,15.43
2024-05-09T04:47:56.753Z,14.80
2024-05-09T04:50:32.711Z,16.05
2024-05-09T04:53:03.674Z,15.60
2024-05-09T04:55:30.501Z,14.65
2024-05-09T04:57:57.084Z,14.50
2024-05-09T05:00:32.400Z,15.90
2024-05-09T05:03:06.807Z,15.15
2024-05-09T05:05:34.608Z,14.77
2024-05-09T05:08:01.256Z,14.57
2024-05-09T05:10:33.882Z,14.52
2024-05-09T05:13:16.375Z,14.85
2024-05-09T05:15:43.823Z,14.65
2024-05-09T05:18:10.507Z,14.73
2024-05-09T05:20:37.198Z,14.50
2024-05-09T05:23:03.944Z,14.30
2024-05-09T05:25:30.515Z,13.90
2024-05-09T05:27:57.047Z,14.30
2024-05-09T05:30:29.024Z,14.27
2024-05-09T05:33:00.219Z,14.65
2024-05-09T05:35:27.144Z,14.75
2024-05-09T05:37:53.853Z,13.93
2024-05-09T05:40:28.208Z,13.93
2024-05-09T05:43:02.400Z,14.15
2024-05-09T05:45:28.942Z,14.55
2024-05-09T05:47:55.808Z,15.13
2024-05-09T05:50:28.004Z,14.02
2024-05-09T05:53:02.033Z,13.35
2024-05-09T05:55:28.660Z,15.20
2024-05-09T05:57:55.183Z,14.65
2024-05-09T06:00:29.528Z,13.93
2024-05-09T06:03:02.326Z,14.00
2024-05-09T06:05:29.155Z,14.60
2024-05-09T06:07:55.874Z,13.40
2024-05-09T06:10:26.329Z,15.32
2024-05-09T06:13:01.319Z,15.05
2024-05-09T06:15:27.929Z,14.77
2024-05-09T06:17:54.924Z,14.55
2024-05-09T06:20:31.229Z,15.20
2024-05-09T06:23:03.086Z,14.88
2024-05-09T06:25:29.816Z,15.65
2024-05-09T06:27:56.351Z,14.77
2024-05-09T06:30:30.125Z,14.90
2024-05-09T06:33:07.688Z,14.75
2024-05-09T06:38:01.708Z,14.18
2024-05-09T06:40:36.507Z,13.68
2024-05-09T06:43:10.198Z,15.07
2024-05-09T06:48:03.794Z,14.82
2024-05-09T06:50:36.851Z,14.48
2024-05-09T06:53:05.040Z,14.32
2024-05-09T06:55:31.622Z,13.18
2024-05-09T06:57:58.158Z,14.00
2024-05-09T07:00:30.933Z,13.73
2024-05-09T07:03:08.974Z,13.70
2024-05-09T07:05:35.842Z,12.93
2024-05-09T07:08:03.606Z,13.77
2024-05-09T07:10:34.841Z,13.57
2024-05-09T07:13:02.586Z,13.30
2024-05-09T07:15:29.166Z,13.73
2024-05-09T07:17:56.011Z,12.30
2024-05-09T07:20:31.849Z,12.80
2024-05-09T07:23:04.058Z,12.93
2024-05-09T07:25:30.887Z,13.73
2024-05-09T07:27:57.539Z,13.02
2024-05-09T07:30:32.516Z,13.40
2024-05-09T07:33:01.465Z,12.65
2024-05-09T07:35:28.732Z,12.73
2024-05-09T07:37:55.510Z,12.40
2024-05-09T07:40:31.625Z,12.27
2024-05-09T07:43:06.617Z,12.40
2024-05-09T07:52:23.397Z,10.73
2024-05-09T07:53:38.463Z,11.48
2024-05-09T07:56:06.651Z,11.52
2024-05-09T07:58:33.380Z,10.00
2024-05-09T08:01:00.065Z,12.60
2024-05-09T08:03:26.766Z,12.77
2024-05-09T08:05:54.446Z,12.93
2024-05-09T08:08:21.184Z,12.40
2024-05-09T08:10:48.077Z,12.10
2024-05-09T08:13:14.710Z,12.82
2024-05-09T08:15:41.534Z,13.05
2024-05-09T08:18:09.680Z,12.68
2024-05-09T08:20:41.224Z,11.88
2024-05-09T08:23:08.102Z,11.93
2024-05-09T08:25:34.639Z,12.40
2024-05-09T08:28:01.339Z,10.80
2024-05-09T08:30:33.733Z,11.13
2024-05-09T08:33:04.825Z,11.40
2024-05-09T08:35:32.289Z,11.68
2024-05-09T08:37:59.105Z,11.38
2024-05-09T08:40:33.369Z,10.82
2024-05-09T08:43:06.671Z,10.95
2024-05-09T08:45:35.123Z,11.75
2024-05-09T08:48:06.012Z,11.57
2024-05-09T08:53:05.667Z,10.02
2024-05-09T08:55:32.556Z,10.35
2024-05-09T08:58:01.392Z,11.25
2024-05-09T09:00:35.848Z,10.25
2024-05-09T09:03:06.320Z,10.30
2024-05-09T09:05:37.962Z,8.73
2024-05-09T09:08:07.478Z,11.30
2024-05-09T09:10:34.618Z,10.35
2024-05-09T09:13:04.170Z,9.80
2024-05-09T09:15:30.944Z,10.43
2024-05-09T09:17:59.174Z,9.25
2024-05-09T09:20:36.288Z,10.18
2024-05-09T09:23:04.492Z,7.80
2024-05-09T09:25:31.716Z,8.48
2024-05-09T09:27:58.863Z,10.02
2024-05-09T09:30:36.328Z,8.63
2024-05-09T09:33:13.897Z,8.30
2024-05-09T09:35:41.033Z,8.27
2024-05-09T09:38:09.793Z,8.43
2024-05-09T09:40:42.495Z,8.45
2024-05-09T09:43:22.794Z,8.63
2024-05-09T09:45:52.880Z,8.60
2024-05-09T09:48:21.951Z,8.68
2024-05-09T09:50:49.392Z,9.20
2024-05-09T09:53:16.583Z,8.77
2024-05-09T09:55:43.334Z,8.73
2024-05-09T09:58:13.220Z,8.55
2024-05-09T10:00:43.077Z,8.02
2024-05-09T10:03:09.995Z,8.45
2024-05-09T10:05:37.427Z,7.72
2024-05-09T10:08:06.712Z,8.98
2024-05-09T10:10:34.862Z,8.77
2024-05-09T10:13:05.843Z,7.10
2024-05-09T10:15:46.465Z,7.82
2024-05-09T10:18:13.733Z,7.55
2024-05-09T10:20:44.753Z,7.55
2024-05-09T10:23:36.172Z,7.18
2024-05-09T10:28:36.107Z,7.22
2024-05-09T10:31:11.415Z,6.57
2024-05-09T10:33:38.361Z,8.57
2024-05-09T10:36:25.820Z,8.27
2024-05-09T10:38:55.575Z,7.97
2024-05-09T10:41:23.514Z,7.00
2024-05-09T10:43:50.907Z,8.85
2024-05-09T10:46:21.048Z,8.20
2024-05-09T10:48:48.698Z,8.40
2024-05-09T10:51:18.077Z,7.05
2024-05-09T10:53:46.781Z,8.00
2024-05-09T10:56:14.396Z,5.93
2024-05-09T10:58:41.117Z,6.93
2024-05-09T11:01:09.424Z,7.30
2024-05-09T11:03:37.033Z,6.78
2024-05-09T11:06:04.413Z,8.43
2024-05-09T11:08:32.733Z,8.27
2024-05-09T11:11:00.277Z,7.68
2024-05-09T11:13:35.109Z,9.15
2024-05-09T11:16:02.924Z,7.43
2024-05-09T11:18:35.309Z,11.13
2024-05-09T11:21:14.272Z,8.80
2024-05-09T11:23:41.596Z,8.85
2024-05-09T11:26:09.143Z,8.38
2024-05-09T11:28:35.915Z,9.90
2024-05-09T11:31:10.718Z,9.88
2024-05-09T11:33:39.413Z,9.02
2024-05-09T11:36:07.306Z,9.90
2024-05-09T11:38:33.977Z,8.00
2024-05-09T11:41:02.666Z,9.82
2024-05-09T11:43:29.412Z,9.18
2024-05-09T11:46:00.255Z,9.35
2024-05-09T11:48:27.415Z,9.35
2024-05-09T11:50:55.333Z,9.40
2024-05-09T11:53:22.081Z,10.05
2024-05-09T11:55:48.723Z,9.88
2024-05-09T11:58:17.783Z,9.43
2024-05-09T12:00:45.261Z,8.93
2024-05-09T12:03:12.035Z,9.75
2024-05-09T12:05:38.735Z,8.85
2024-05-09T12:08:06.534Z,10.32
2024-05-09T12:10:35.680Z,9.30
2024-05-09T12:13:05.487Z,9.20
2024-05-09T12:15:35.971Z,10.05
2024-05-09T12:18:04.206Z,9.70
2024-05-09T12:20:36.924Z,8.88
2024-05-09T12:23:06.556Z,9.88
2024-05-09T12:25:33.445Z,8.98
2024-05-09T12:28:00.691Z,8.23
2024-05-09T12:30:35.903Z,6.40
2024-05-09T12:33:07.688Z,7.53
2024-05-09T12:35:34.579Z,7.82
2024-05-09T12:38:01.240Z,7.35
2024-05-09T12:40:35.527Z,8.38
2024-05-09T12:43:09.414Z,10.15
2024-05-09T12:45:37.726Z,9.38
2024-05-09T12:48:07.441Z,8.88
2024-05-09T12:50:34.971Z,10.50
2024-05-09T12:53:03.252Z,9.48
2024-05-09T12:55:37.325Z,8.75
2024-05-09T12:58:11.627Z,8.53
2024-05-09T13:00:39.091Z,7.78
2024-05-09T13:03:06.395Z,8.63
2024-05-09T13:05:33.495Z,8.80
2024-05-09T13:08:00.943Z,8.75
2024-05-09T13:10:32.173Z,8.65
2024-05-09T13:13:01.518Z,9.73
2024-05-09T13:15:30.419Z,9.05
2024-05-09T13:18:00.463Z,9.65
2024-05-09T13:20:33.782Z,10.13
2024-05-09T13:23:05.345Z,9.40
2024-05-09T13:25:34.720Z,9.02
2024-05-09T13:28:02.040Z,8.70
2024-05-09T13:30:37.757Z,9.23
2024-05-09T13:33:08.201Z,8.65
2024-05-09T13:35:36.039Z,9.68
2024-05-09T13:38:04.779Z,9.38
2024-05-09T13:40:34.863Z,9.00
2024-05-09T13:43:06.973Z,9.32
2024-05-09T13:45:35.013Z,8.77
2024-05-09T13:48:02.824Z,9.02
2024-05-09T13:50:34.616Z,9.18
2024-05-09T13:53:06.011Z,7.50
2024-05-09T13:55:33.995Z,8.95
2024-05-09T13:58:01.353Z,9.15
2024-05-09T14:00:41.495Z,9.18
2024-05-09T14:03:13.841Z,7.70
2024-05-09T14:05:40.973Z,8.35
2024-05-09T14:08:08.602Z,9.10
2024-05-09T14:10:35.615Z,8.63
2024-05-09T14:13:02.563Z,8.57
2024-05-09T14:15:29.575Z,8.18
2024-05-09T14:17:56.404Z,9.10
2024-05-09T14:20:30.405Z,8.70
2024-05-09T14:23:00.411Z,8.15
2024-05-09T14:25:28.409Z,8.93
2024-05-09T14:27:55.843Z,9.57
2024-05-09T14:30:30.547Z,8.88
2024-05-09T14:33:03.573Z,8.55
2024-05-09T14:35:30.450Z,7.70
2024-05-09T14:37:57.194Z,8.80
2024-05-09T14:42:53.628Z,7.82
2024-05-09T14:45:20.358Z,7.40
2024-05-09T14:47:47.069Z,8.65
2024-05-09T14:50:19.424Z,8.77
2024-05-09T14:52:50.692Z,8.13
2024-05-09T14:55:17.408Z,8.38
2024-05-09T14:57:44.231Z,8.05
2024-05-09T15:00:20.881Z,5.30
2024-05-09T15:02:52.887Z,7.70
2024-05-09T15:05:19.794Z,8.48
2024-05-09T15:07:46.798Z,6.53
2024-05-09T15:10:20.752Z,7.47
2024-05-09T15:12:53.536Z,6.93
2024-05-09T15:15:20.886Z,6.35
2024-05-09T15:17:47.928Z,6.40
2024-05-09T15:20:17.585Z,5.65
2024-05-09T15:22:50.561Z,6.60
2024-05-09T15:25:17.326Z,5.80
2024-05-09T15:27:44.505Z,5.82
2024-05-09T15:30:13.171Z,5.60
2024-05-09T15:35:10.233Z,6.40
2024-05-09T15:37:37.126Z,6.60
2024-05-09T15:40:07.434Z,5.78
2024-05-09T15:42:36.266Z,6.75
2024-05-09T15:45:03.089Z,5.82
2024-05-09T15:47:30.188Z,6.93
2024-05-09T15:49:56.949Z,6.32
2024-05-09T15:52:23.616Z,6.93
2024-05-09T15:54:51.322Z,6.70
2024-05-09T15:57:17.919Z,6.85
2024-05-09T15:59:44.839Z,6.05
2024-05-09T16:02:11.764Z,5.85
2024-05-09T16:04:38.589Z,5.72
2024-05-09T16:07:05.454Z,5.28
2024-05-09T16:09:32.123Z,5.75
2024-05-09T16:11:58.837Z,5.78
2024-05-09T16:14:25.815Z,5.50
2024-05-09T16:16:52.587Z,5.63
2024-05-09T16:19:19.468Z,6.10
2024-05-09T16:21:46.026Z,5.50
2024-05-09T16:24:12.587Z,6.13
2024-05-09T16:26:39.327Z,6.50
2024-05-09T16:29:05.918Z,6.82
2024-05-09T16:31:33.531Z,7.32
2024-05-09T16:34:00.401Z,6.97
2024-05-09T16:36:27.165Z,6.60
2024-05-09T16:38:53.725Z,6.90
2024-05-09T16:41:20.314Z,7.43
2024-05-09T16:43:46.832Z,7.43
2024-05-09T16:46:13.921Z,6.80
2024-05-09T16:48:42.536Z,6.60
2024-05-09T16:51:09.138Z,7.30
2024-05-09T16:53:35.841Z,7.97
2024-05-09T16:56:02.876Z,7.45
2024-05-09T16:58:29.934Z,6.88
2024-05-09T17:00:56.682Z,6.95
2024-05-09T17:03:23.633Z,7.20
2024-05-09T17:05:50.585Z,7.50
2024-05-09T17:08:20.335Z,7.78
2024-05-09T17:10:50.598Z,6.93
2024-05-09T17:13:17.746Z,7.70
2024-05-09T17:15:44.807Z,7.20
2024-05-09T17:18:11.540Z,7.75
2024-05-09T17:20:38.249Z,7.32
2024-05-09T17:23:12.886Z,7.30
2024-05-09T17:25:40.471Z,7.50
2024-05-09T17:28:08.507Z,7.80
2024-05-09T17:30:38.420Z,7.45
2024-05-09T17:33:08.876Z,7.50
2024-05-09T17:35:37.180Z,7.80
2024-05-09T17:38:07.184Z,8.02
2024-05-09T17:40:36.585Z,6.87
2024-05-09T17:45:33.294Z,8.15
2024-05-09T17:48:00.747Z,8.75
2024-05-09T17:50:35.118Z,9.23
2024-05-09T17:53:04.974Z,8.93
2024-05-09T17:55:31.928Z,8.43
2024-05-09T17:57:58.794Z,9.55
2024-05-09T18:00:36.348Z,9.52
2024-05-09T18:03:07.161Z,9.40
2024-05-09T18:05:36.140Z,9.50
2024-05-09T18:08:03.496Z,9.23
2024-05-09T18:10:36.003Z,10.60
2024-05-09T18:13:06.340Z,10.00
2024-05-09T18:15:33.590Z,9.60
2024-05-09T18:18:01.379Z,10.27
2024-05-09T18:20:37.528Z,9.77
2024-05-09T18:23:09.699Z,9.60
2024-05-09T18:25:36.460Z,10.15
2024-05-09T18:28:03.350Z,11.45
2024-05-09T18:30:34.843Z,10.75
2024-05-09T18:33:04.733Z,10.05
2024-05-09T18:35:32.410Z,9.82
2024-05-09T18:37:59.096Z,9.63
2024-05-09T18:40:32.753Z,9.38
2024-05-09T18:43:03.400Z,10.13
2024-05-09T18:45:30.617Z,9.88
2024-05-09T18:47:57.893Z,10.13
2024-05-09T18:50:32.514Z,9.80
2024-05-09T18:53:05.613Z,10.23
2024-05-09T18:55:32.316Z,11.32
2024-05-09T18:57:58.980Z,10.27
2024-05-09T19:00:33.868Z,11.13
2024-05-09T19:03:05.662Z,10.93
2024-05-09T19:05:34.834Z,10.27
2024-05-09T19:08:02.047Z,10.80
2024-05-09T19:10:33.969Z,10.88
2024-05-09T19:13:05.397Z,11.55
2024-05-09T19:15:35.634Z,11.43
2024-05-09T19:18:02.668Z,11.00
2024-05-09T19:20:34.175Z,11.52
2024-05-09T19:23:02.448Z,11.40
2024-05-09T19:25:29.088Z,12.40
2024-05-09T19:27:55.743Z,11.90
2024-05-09T19:30:30.181Z,12.20
2024-05-09T19:33:05.031Z,12.85
2024-05-09T19:35:32.287Z,12.93
2024-05-09T19:37:59.104Z,12.82
2024-05-09T19:40:31.269Z,12.13
2024-05-09T19:43:00.600Z,11.48
2024-05-09T19:45:27.414Z,11.60
2024-05-09T19:47:55.331Z,11.70
2024-05-09T19:50:30.317Z,12.63
2024-05-09T19:55:30.021Z,12.07
2024-05-09T19:57:57.022Z,12.55
2024-05-09T20:00:32.488Z,12.75
2024-05-09T20:03:02.777Z,13.00
2024-05-09T20:05:32.934Z,13.27
2024-05-09T20:07:59.955Z,12.75
2024-05-09T20:10:31.682Z,13.13
2024-05-09T20:13:00.595Z,13.25
2024-05-09T20:15:27.367Z,12.88
2024-05-09T20:17:54.498Z,12.73
2024-05-09T20:20:32.081Z,12.85
2024-05-09T20:23:03.956Z,12.55
2024-05-09T20:25:30.515Z,12.65
2024-05-09T20:27:57.177Z,13.48
2024-05-09T20:30:31.232Z,12.60
2024-05-09T20:33:00.469Z,12.32
2024-05-09T20:35:30.339Z,12.10
2024-05-09T20:37:56.930Z,12.05
2024-05-09T20:40:29.196Z,11.52
2024-05-09T20:43:00.233Z,12.00
2024-05-09T20:45:27.082Z,10.98
2024-05-09T20:47:53.943Z,11.38
2024-05-09T20:50:28.832Z,11.40
2024-05-09T20:53:03.307Z,11.80
2024-05-09T20:55:30.357Z,12.48
2024-05-09T20:57:57.664Z,11.18
2024-05-09T21:00:33.818Z,12.48
2024-05-09T21:03:06.489Z,11.55
2024-05-09T21:05:34.101Z,11.77
2024-05-09T21:08:01.328Z,11.75
2024-05-09T21:10:32.310Z,12.02
2024-05-09T21:13:00.380Z,11.77
2024-05-09T21:15:27.054Z,10.75
2024-05-09T21:17:53.617Z,10.55
2024-05-09T21:20:24.153Z,11.60
2024-05-09T21:22:57.980Z,11.85
2024-05-09T21:25:24.601Z,10.90
2024-05-09T21:27:51.405Z,11.65
2024-05-09T21:30:26.830Z,11.15
2024-05-09T21:32:59.345Z,11.90
2024-05-09T21:35:25.978Z,12.02
2024-05-09T21:37:52.556Z,11.25
2024-05-09T21:40:27.242Z,11.52
2024-05-09T21:43:00.926Z,10.80
2024-05-09T21:45:27.703Z,11.23
2024-05-09T21:47:54.641Z,11.50
2024-05-09T21:50:27.970Z,11.07
2024-05-09T21:52:59.026Z,11.77
2024-05-09T21:55:25.751Z,11.57
2024-05-09T21:57:52.378Z,11.32
2024-05-09T22:00:28.724Z,11.57
2024-05-09T22:03:02.185Z,12.65
2024-05-09T22:05:29.139Z,12.30
2024-05-09T22:07:56.415Z,12.90
2024-05-09T22:10:27.143Z,11.82
2024-05-09T22:13:00.148Z,12.85
2024-05-09T22:15:27.009Z,12.82
2024-05-09T22:17:53.739Z,12.98
2024-05-09T22:20:28.742Z,13.15
2024-05-09T22:23:02.305Z,12.68
2024-05-09T22:25:30.783Z,12.77
2024-05-09T22:27:58.110Z,12.10
2024-05-09T22:30:33.777Z,11.82
2024-05-09T22:33:05.191Z,12.40
2024-05-09T22:35:32.052Z,12.35
2024-05-09T22:37:58.683Z,12.60
2024-05-09T22:40:37.860Z,11.80
2024-05-09T22:43:12.459Z,12.77
2024-05-09T22:45:39.210Z,12.38
2024-05-09T22:48:06.440Z,12.40
2024-05-09T22:50:33.838Z,12.57
2024-05-09T22:53:00.971Z,12.82
2024-05-09T22:55:27.720Z,12.77
2024-05-09T22:57:54.339Z,12.57
2024-05-09T23:00:29.275Z,12.90
2024-05-09T23:03:00.043Z,12.70
2024-05-09T23:05:26.981Z,12.00
2024-05-09T23:07:53.692Z,12.82
2024-05-09T23:10:27.749Z,12.48
2024-05-09T23:12:59.285Z,12.18
2024-05-09T23:15:25.924Z,12.00
2024-05-09T23:17:52.697Z,12.23
2024-05-09T23:20:29.802Z,10.80
2024-05-09T23:23:03.325Z,12.13
2024-05-09T23:25:29.873Z,12.43
2024-05-09T23:27:56.543Z,11.93
2024-05-09T23:30:33.092Z,12.48
2024-05-09T23:35:31.265Z,11.55
2024-05-09T23:37:57.811Z,11.73
2024-05-09T23:40:34.702Z,11.63
2024-05-09T23:43:05.333Z,11.40
2024-05-09T23:45:31.897Z,12.20
2024-05-09T23:48:01.189Z,11.73
2024-05-09T23:50:34.429Z,12.00
2024-05-09T23:53:05.085Z,12.10
2024-05-09T23:55:32.213Z,12.15
2024-05-09T23:57:59.495Z,11.73
